createdAt,value
2022-08-31T00:00:43.531Z,60.62
2022-08-31T00:01:43.599Z,60.72
2022-08-31T00:02:43.522Z,60.72
2022-08-31T00:03:43.509Z,60.62
2022-08-31T00:04:43.562Z,60.62
2022-08-31T00:05:43.482Z,60.52
2022-08-31T00:06:43.462Z,60.32
2022-08-31T00:07:43.474Z,60.12
2022-08-31T00:08:43.454Z,60.22
2022-08-31T00:09:43.473Z,60.02
2022-08-31T00:10:45.066Z,60.12
2022-08-31T00:11:43.404Z,60.02
2022-08-31T00:12:43.404Z,60.02
2022-08-31T00:13:43.385Z,60.02
2022-08-31T00:14:43.406Z,60.02
2022-08-31T00:15:43.379Z,60.05
2022-08-31T00:16:43.453Z,60.02
2022-08-31T00:17:43.356Z,60.05
2022-08-31T00:18:43.337Z,60.05
2022-08-31T00:19:43.337Z,60.05
2022-08-31T00:20:43.344Z,60.05
2022-08-31T00:21:44.740Z,60.05
2022-08-31T00:22:43.318Z,60.05
2022-08-31T00:23:43.288Z,59.95
2022-08-31T00:24:43.279Z,59.75
2022-08-31T00:25:43.268Z,60.05
2022-08-31T00:26:43.260Z,59.65
2022-08-31T00:27:43.238Z,59.75
2022-08-31T00:28:43.314Z,59.75
2022-08-31T00:29:43.443Z,59.75
2022-08-31T00:30:43.210Z,59.95
2022-08-31T00:31:43.268Z,60.25
2022-08-31T00:32:43.203Z,60.55
2022-08-31T00:33:43.366Z,60.75
2022-08-31T00:34:43.808Z,60.48
2022-08-31T00:35:43.154Z,60.68
2022-08-31T00:36:43.142Z,60.88
2022-08-31T00:37:43.133Z,61.18
2022-08-31T00:38:43.161Z,60.97
2022-08-31T00:39:43.122Z,61.98
2022-08-31T00:40:44.364Z,62.07
2022-08-31T00:41:43.463Z,61.98
2022-08-31T00:42:43.107Z,63.40
2022-08-31T00:43:43.070Z,63.40
2022-08-31T00:44:43.074Z,64.40
2022-08-31T00:45:43.141Z,65.30
2022-08-31T00:46:43.044Z,66.23
2022-08-31T00:47:43.110Z,66.23
2022-08-31T00:48:43.025Z,66.63
2022-08-31T00:49:43.013Z,67.03
2022-08-31T00:50:43.013Z,67.23
2022-08-31T00:51:42.996Z,67.53
2022-08-31T00:52:43.296Z,67.43
2022-08-31T00:53:42.982Z,67.66
2022-08-31T00:54:42.965Z,69.66
2022-08-31T00:55:42.960Z,69.76
2022-08-31T00:56:42.937Z,71.56
2022-08-31T00:57:42.935Z,74.29
2022-08-31T00:58:42.925Z,74.89
2022-08-31T00:59:42.908Z,77.69
2022-08-31T01:00:42.950Z,79.89
2022-08-31T01:01:42.954Z,80.53
2022-08-31T01:02:42.900Z,81.23
2022-08-31T01:03:42.869Z,79.73
2022-08-31T01:04:42.850Z,82.37
2022-08-31T01:05:42.823Z,82.37
2022-08-31T01:06:42.794Z,83.17
2022-08-31T01:07:42.812Z,84.71
2022-08-31T01:08:42.792Z,84.61
2022-08-31T01:09:43.518Z,84.51
2022-08-31T01:10:43.754Z,85.25
2022-08-31T01:11:42.765Z,84.25
2022-08-31T01:12:42.755Z,86.16
2022-08-31T01:13:42.736Z,86.66
2022-08-31T01:14:42.736Z,86.85
2022-08-31T01:15:42.719Z,86.55
2022-08-31T01:16:42.772Z,87.05
2022-08-31T01:17:42.687Z,86.76
2022-08-31T01:18:42.685Z,85.60
2022-08-31T01:19:42.842Z,86.19
2022-08-31T01:20:42.670Z,85.99
2022-08-31T01:21:43.679Z,85.39
2022-08-31T01:22:42.658Z,85.69
2022-08-31T01:23:42.642Z,86.10
2022-08-31T01:24:42.629Z,85.80
2022-08-31T01:25:42.628Z,86.40
2022-08-31T01:26:42.650Z,85.30
2022-08-31T01:27:43.585Z,87.00
2022-08-31T01:28:42.812Z,85.89
2022-08-31T01:29:42.630Z,86.19
2022-08-31T01:30:42.571Z,85.89
2022-08-31T01:31:42.627Z,85.49
2022-08-31T01:32:42.540Z,83.79
2022-08-31T01:33:42.782Z,84.39
2022-08-31T01:34:42.541Z,83.79
2022-08-31T01:35:42.493Z,84.49
2022-08-31T01:36:42.473Z,85.30
2022-08-31T01:37:42.474Z,84.63
2022-08-31T01:38:42.473Z,85.03
2022-08-31T01:39:42.494Z,84.63
2022-08-31T01:40:42.470Z,85.13
2022-08-31T01:41:42.444Z,85.03
2022-08-31T01:42:42.415Z,84.88
2022-08-31T01:43:42.455Z,85.68
2022-08-31T01:44:42.405Z,85.68
2022-08-31T01:45:42.405Z,86.18
2022-08-31T01:46:42.373Z,86.68
2022-08-31T01:47:42.366Z,86.58
2022-08-31T01:48:42.376Z,86.98
2022-08-31T01:49:42.355Z,86.18
2022-08-31T01:50:42.327Z,86.88
2022-08-31T01:51:42.419Z,88.29
2022-08-31T01:52:42.430Z,86.68
2022-08-31T01:53:45.470Z,86.78
2022-08-31T01:54:43.507Z,88.09
2022-08-31T01:55:42.285Z,87.34
2022-08-31T01:56:42.278Z,87.48
2022-08-31T01:57:42.260Z,87.94
2022-08-31T01:58:42.258Z,87.48
2022-08-31T01:59:42.240Z,87.88
2022-08-31T02:00:42.275Z,87.68
2022-08-31T02:01:42.331Z,87.68
2022-08-31T02:02:42.262Z,87.88
2022-08-31T02:03:42.200Z,88.39
2022-08-31T02:04:42.192Z,88.09
2022-08-31T02:05:42.179Z,88.09
2022-08-31T02:06:42.172Z,88.99
2022-08-31T02:07:42.202Z,89.89
2022-08-31T02:08:42.170Z,90.09
2022-08-31T02:09:42.163Z,90.35
2022-08-31T02:10:42.593Z,89.85
2022-08-31T02:11:42.213Z,89.29
2022-08-31T02:12:42.111Z,89.09
2022-08-31T02:13:42.354Z,88.29
2022-08-31T02:14:42.075Z,87.68
2022-08-31T02:15:42.085Z,87.38
2022-08-31T02:16:42.120Z,87.58
2022-08-31T02:17:42.120Z,87.88
2022-08-31T02:18:42.055Z,88.39
2022-08-31T02:19:42.042Z,88.18
2022-08-31T02:20:42.039Z,88.18
2022-08-31T02:21:42.015Z,88.59
2022-08-31T02:22:41.998Z,88.18
2022-08-31T02:23:41.998Z,88.59
2022-08-31T02:24:41.986Z,88.48
2022-08-31T02:25:41.967Z,88.09
2022-08-31T02:26:41.987Z,87.78
2022-08-31T02:27:41.968Z,87.58
2022-08-31T02:28:41.935Z,87.58
2022-08-31T02:29:41.918Z,87.28
2022-08-31T02:30:41.938Z,86.88
2022-08-31T02:31:41.995Z,86.58
2022-08-31T02:32:42.156Z,86.38
2022-08-31T02:33:41.889Z,88.09
2022-08-31T02:34:41.889Z,88.39
2022-08-31T02:35:41.877Z,87.28
2022-08-31T02:36:41.849Z,87.02
2022-08-31T02:37:41.985Z,87.32
2022-08-31T02:38:41.850Z,87.42
2022-08-31T02:39:41.810Z,86.92
2022-08-31T02:40:41.884Z,86.72
2022-08-31T02:41:41.791Z,87.22
2022-08-31T02:42:53.069Z,87.22
2022-08-31T02:43:42.881Z,87.06
2022-08-31T02:44:41.792Z,87.26
2022-08-31T02:45:41.752Z,87.16
2022-08-31T02:46:41.859Z,87.46
2022-08-31T02:47:41.752Z,87.66
2022-08-31T02:48:41.754Z,87.77
2022-08-31T02:49:41.713Z,88.07
2022-08-31T02:50:41.724Z,88.47
2022-08-31T02:51:41.722Z,88.27
2022-08-31T02:52:41.715Z,87.77
2022-08-31T02:53:41.685Z,87.66
2022-08-31T02:54:41.683Z,87.66
2022-08-31T02:55:41.655Z,87.57
2022-08-31T02:56:41.648Z,87.87
2022-08-31T02:57:42.084Z,87.57
2022-08-31T02:58:41.636Z,87.96
2022-08-31T02:59:41.614Z,88.57
2022-08-31T03:00:41.604Z,88.77
2022-08-31T03:01:41.678Z,89.47
2022-08-31T03:02:41.697Z,89.78
2022-08-31T03:03:41.564Z,89.47
2022-08-31T03:04:42.557Z,88.47
2022-08-31T03:05:41.570Z,87.87
2022-08-31T03:06:41.550Z,87.96
2022-08-31T03:07:41.538Z,88.07
2022-08-31T03:08:41.529Z,88.27
2022-08-31T03:09:41.510Z,88.47
2022-08-31T03:10:41.499Z,88.47
2022-08-31T03:11:41.480Z,88.37
2022-08-31T03:12:41.490Z,88.27
2022-08-31T03:13:41.484Z,88.27
2022-08-31T03:14:41.491Z,88.07
2022-08-31T03:15:41.473Z,88.17
2022-08-31T03:16:41.599Z,88.17
2022-08-31T03:17:41.441Z,88.57
2022-08-31T03:18:41.414Z,89.01
2022-08-31T03:19:41.423Z,89.11
2022-08-31T03:20:41.412Z,88.71
2022-08-31T03:21:41.372Z,89.42
2022-08-31T03:22:41.372Z,89.72
2022-08-31T03:23:41.384Z,89.31
2022-08-31T03:24:41.364Z,89.31
2022-08-31T03:25:41.441Z,89.72
2022-08-31T03:26:41.371Z,90.02
2022-08-31T03:27:41.322Z,90.52
2022-08-31T03:28:41.325Z,90.32
2022-08-31T03:29:41.315Z,90.82
2022-08-31T03:30:41.319Z,89.62
2022-08-31T03:31:41.307Z,90.28
2022-08-31T03:32:41.274Z,90.52
2022-08-31T03:33:41.375Z,90.42
2022-08-31T03:34:41.337Z,90.42
2022-08-31T03:35:41.246Z,90.52
2022-08-31T03:36:41.266Z,90.52
2022-08-31T03:37:41.236Z,90.42
2022-08-31T03:38:41.217Z,90.62
2022-08-31T03:39:41.186Z,90.22
2022-08-31T03:40:41.270Z,90.82
2022-08-31T03:41:41.174Z,90.82
2022-08-31T03:42:41.189Z,91.02
2022-08-31T03:43:41.187Z,91.93
2022-08-31T03:44:41.168Z,91.72
2022-08-31T03:45:41.129Z,91.22
2022-08-31T03:46:41.190Z,90.22
2022-08-31T03:47:43.456Z,89.62
2022-08-31T03:48:41.103Z,89.42
2022-08-31T03:49:41.101Z,90.32
2022-08-31T03:50:41.099Z,90.22
2022-08-31T03:51:41.089Z,90.02
2022-08-31T03:52:41.071Z,90.12
2022-08-31T03:53:41.048Z,89.82
2022-08-31T03:54:41.089Z,89.82
2022-08-31T03:55:41.045Z,89.51
2022-08-31T03:56:41.030Z,89.62
2022-08-31T03:57:41.013Z,89.72
2022-08-31T03:58:41.003Z,89.92
2022-08-31T03:59:40.983Z,90.02
2022-08-31T04:00:40.992Z,89.92
2022-08-31T04:01:41.021Z,90.02
2022-08-31T04:02:41.057Z,90.02
2022-08-31T04:03:40.953Z,89.72
2022-08-31T04:04:40.933Z,89.01
2022-08-31T04:05:40.926Z,89.51
2022-08-31T04:06:40.924Z,88.91
2022-08-31T04:07:42.782Z,89.01
2022-08-31T04:08:40.909Z,89.01
2022-08-31T04:09:40.885Z,89.51
2022-08-31T04:10:40.985Z,89.31
2022-08-31T04:11:45.482Z,89.92
2022-08-31T04:12:41.863Z,90.22
2022-08-31T04:13:40.857Z,89.82
2022-08-31T04:14:40.887Z,89.92
2022-08-31T04:15:40.901Z,89.42
2022-08-31T04:16:40.838Z,89.01
2022-08-31T04:17:40.792Z,89.11
2022-08-31T04:18:40.804Z,89.01
2022-08-31T04:19:40.808Z,89.51
2022-08-31T04:20:40.914Z,89.31
2022-08-31T04:21:40.910Z,89.42
2022-08-31T04:22:40.778Z,89.62
2022-08-31T04:23:40.767Z,90.42
2022-08-31T04:24:40.758Z,90.62
2022-08-31T04:25:40.721Z,90.62
2022-08-31T04:26:40.757Z,90.32
2022-08-31T04:27:40.980Z,91.02
2022-08-31T04:28:40.678Z,91.22
2022-08-31T04:29:40.688Z,91.02
2022-08-31T04:30:40.699Z,90.52
2022-08-31T04:31:40.697Z,90.46
2022-08-31T04:32:40.671Z,90.66
2022-08-31T04:33:40.622Z,90.77
2022-08-31T04:34:40.702Z,90.66
2022-08-31T04:35:40.675Z,90.46
2022-08-31T04:36:40.602Z,90.86
2022-08-31T04:37:45.874Z,91.06
2022-08-31T04:38:41.628Z,90.97
2022-08-31T04:39:51.259Z,91.17
2022-08-31T04:40:41.668Z,91.47
2022-08-31T04:41:40.542Z,91.77
2022-08-31T04:42:40.565Z,91.77
2022-08-31T04:43:40.541Z,91.67
2022-08-31T04:44:40.570Z,91.87
2022-08-31T04:45:40.572Z,92.07
2022-08-31T04:46:40.513Z,92.17
2022-08-31T04:47:40.516Z,92.07
2022-08-31T04:48:40.478Z,92.07
2022-08-31T04:49:40.474Z,91.67
2022-08-31T04:50:42.722Z,91.57
2022-08-31T04:51:40.495Z,91.47
2022-08-31T04:52:40.465Z,91.47
2022-08-31T04:53:40.658Z,91.57
2022-08-31T04:54:40.889Z,92.37
2022-08-31T04:55:40.435Z,92.07
2022-08-31T04:56:40.419Z,92.17
2022-08-31T04:57:40.442Z,92.37
2022-08-31T04:58:40.400Z,92.07
2022-08-31T04:59:40.428Z,92.17
2022-08-31T05:00:40.377Z,92.47
2022-08-31T05:01:43.260Z,92.27
2022-08-31T05:02:40.381Z,92.37
2022-08-31T05:03:40.367Z,92.47
2022-08-31T05:04:40.359Z,92.68
2022-08-31T05:05:41.888Z,92.88
2022-08-31T05:06:40.291Z,93.08
2022-08-31T05:07:41.992Z,93.08
2022-08-31T05:08:40.332Z,93.18
2022-08-31T05:09:40.950Z,93.38
2022-08-31T05:10:40.281Z,93.38
2022-08-31T05:11:40.941Z,93.68
2022-08-31T05:12:40.252Z,93.68
2022-08-31T05:13:41.023Z,93.58
2022-08-31T05:14:40.233Z,93.58
2022-08-31T05:15:41.295Z,93.78
2022-08-31T05:16:40.333Z,93.78
2022-08-31T05:17:40.952Z,93.48
2022-08-31T05:18:40.163Z,93.18
2022-08-31T05:19:41.282Z,93.28
2022-08-31T05:20:40.191Z,93.38
2022-08-31T05:21:40.256Z,93.58
2022-08-31T05:22:40.145Z,93.78
2022-08-31T05:23:40.131Z,93.78
2022-08-31T05:24:40.104Z,93.48
2022-08-31T05:25:40.092Z,93.38
2022-08-31T05:26:42.055Z,93.28
2022-08-31T05:27:40.075Z,93.38
2022-08-31T05:28:40.095Z,93.38
2022-08-31T05:29:40.046Z,93.48
2022-08-31T05:30:40.094Z,93.28
2022-08-31T05:31:40.026Z,93.28
2022-08-31T05:32:40.007Z,93.48
2022-08-31T05:33:40.044Z,93.38
2022-08-31T05:34:40.007Z,93.28
2022-08-31T05:35:40.008Z,93.48
2022-08-31T05:36:39.977Z,93.68
2022-08-31T05:37:39.978Z,93.68
2022-08-31T05:38:39.993Z,93.38
2022-08-31T05:39:39.970Z,93.33
2022-08-31T05:40:40.018Z,93.33
2022-08-31T05:41:39.949Z,93.13
2022-08-31T05:42:39.908Z,93.13
2022-08-31T05:43:40.089Z,93.54
2022-08-31T05:44:39.960Z,93.54
2022-08-31T05:45:39.871Z,93.33
2022-08-31T05:46:39.903Z,93.33
2022-08-31T05:47:39.870Z,93.03
2022-08-31T05:48:39.851Z,92.73
2022-08-31T05:49:39.843Z,92.43
2022-08-31T05:50:39.817Z,92.53
2022-08-31T05:51:39.815Z,92.83
2022-08-31T05:52:39.870Z,92.73
2022-08-31T05:53:39.801Z,92.13
2022-08-31T05:54:39.784Z,91.93
2022-08-31T05:55:39.756Z,91.52
2022-08-31T05:56:39.803Z,91.63
2022-08-31T05:57:39.765Z,91.42
2022-08-31T05:58:39.754Z,91.42
2022-08-31T05:59:39.735Z,91.22
2022-08-31T06:00:39.719Z,91.52
2022-08-31T06:01:39.799Z,91.83
2022-08-31T06:02:39.725Z,91.63
2022-08-31T06:03:39.666Z,91.32
2022-08-31T06:04:39.675Z,91.13
2022-08-31T06:05:39.751Z,91.42
2022-08-31T06:06:39.678Z,92.13
2022-08-31T06:07:39.706Z,92.13
2022-08-31T06:08:39.639Z,92.23
2022-08-31T06:09:39.607Z,92.13
2022-08-31T06:10:39.695Z,91.72
2022-08-31T06:11:39.607Z,91.42
2022-08-31T06:12:39.603Z,90.72
2022-08-31T06:13:39.586Z,91.02
2022-08-31T06:14:40.811Z,90.82
2022-08-31T06:15:42.410Z,90.42
2022-08-31T06:16:39.638Z,90.42
2022-08-31T06:17:39.532Z,90.32
2022-08-31T06:18:39.559Z,90.28
2022-08-31T06:19:39.556Z,90.08
2022-08-31T06:20:39.566Z,90.28
2022-08-31T06:21:39.508Z,89.47
2022-08-31T06:22:40.518Z,89.58
2022-08-31T06:23:39.481Z,89.27
2022-08-31T06:24:39.490Z,89.42
2022-08-31T06:25:39.461Z,89.47
2022-08-31T06:26:39.501Z,89.37
2022-08-31T06:27:39.480Z,89.17
2022-08-31T06:28:39.520Z,89.78
2022-08-31T06:29:39.414Z,90.08
2022-08-31T06:30:54.316Z,89.17
2022-08-31T06:31:40.395Z,89.07
2022-08-31T06:32:39.386Z,89.07
2022-08-31T06:33:39.374Z,89.67
2022-08-31T06:34:39.416Z,89.07
2022-08-31T06:35:40.387Z,89.07
2022-08-31T06:36:39.326Z,89.47
2022-08-31T06:37:39.355Z,89.27
2022-08-31T06:38:39.339Z,89.27
2022-08-31T06:39:39.306Z,89.47
2022-08-31T06:40:39.444Z,89.58
2022-08-31T06:41:39.337Z,89.37
2022-08-31T06:42:39.276Z,89.37
2022-08-31T06:43:39.275Z,89.37
2022-08-31T06:44:39.298Z,89.78
2022-08-31T06:45:39.236Z,89.37
2022-08-31T06:46:39.250Z,89.87
2022-08-31T06:47:39.238Z,89.98
2022-08-31T06:48:39.229Z,90.08
2022-08-31T06:49:39.197Z,90.17
2022-08-31T06:50:39.222Z,89.98
2022-08-31T06:51:39.201Z,89.87
2022-08-31T06:52:39.269Z,90.08
2022-08-31T06:53:39.198Z,89.87
2022-08-31T06:54:39.148Z,89.47
2022-08-31T06:55:39.146Z,89.67
2022-08-31T06:56:39.120Z,89.67
2022-08-31T06:57:39.134Z,89.37
2022-08-31T06:58:39.119Z,89.17
2022-08-31T06:59:39.161Z,88.97
2022-08-31T07:00:39.079Z,89.17
2022-08-31T07:01:39.168Z,89.07
2022-08-31T07:02:39.222Z,89.27
2022-08-31T07:03:39.125Z,88.97
2022-08-31T07:04:39.102Z,88.97
2022-08-31T07:05:39.064Z,88.57
2022-08-31T07:06:39.094Z,88.87
2022-08-31T07:07:39.064Z,88.07
2022-08-31T07:08:38.993Z,88.37
2022-08-31T07:09:38.993Z,87.37
2022-08-31T07:10:39.015Z,87.06
2022-08-31T07:11:42.271Z,87.37
2022-08-31T07:12:40.013Z,86.96
2022-08-31T07:13:38.943Z,87.06
2022-08-31T07:14:39.006Z,86.56
2022-08-31T07:15:38.955Z,86.02
2022-08-31T07:16:38.970Z,86.42
2022-08-31T07:17:38.932Z,85.22
2022-08-31T07:18:38.895Z,85.31
2022-08-31T07:19:41.477Z,84.81
2022-08-31T07:20:39.910Z,84.71
2022-08-31T07:21:38.944Z,84.81
2022-08-31T07:22:38.865Z,84.21
2022-08-31T07:23:38.848Z,83.11
2022-08-31T07:24:38.826Z,82.51
2022-08-31T07:25:38.865Z,82.00
2022-08-31T07:26:38.868Z,82.90
2022-08-31T07:27:38.931Z,82.81
2022-08-31T07:28:38.788Z,81.60
2022-08-31T07:29:38.886Z,82.00
2022-08-31T07:30:38.934Z,80.50
2022-08-31T07:31:38.764Z,80.90
2022-08-31T07:32:38.810Z,81.50
2022-08-31T07:33:38.869Z,81.00
2022-08-31T07:34:38.753Z,81.40
2022-08-31T07:35:38.787Z,81.50
2022-08-31T07:36:38.698Z,80.90
2022-08-31T07:37:38.700Z,81.56
2022-08-31T07:38:38.681Z,82.46
2022-08-31T07:39:38.728Z,83.17
2022-08-31T07:40:38.784Z,82.26
2022-08-31T07:41:38.661Z,82.76
2022-08-31T07:42:38.633Z,82.46
2022-08-31T07:43:38.639Z,82.67
2022-08-31T07:44:38.635Z,82.57
2022-08-31T07:45:39.352Z,82.17
2022-08-31T07:46:38.630Z,81.67
2022-08-31T07:47:38.643Z,81.76
2022-08-31T07:48:38.622Z,82.26
2022-08-31T07:49:38.574Z,80.62
2022-08-31T07:50:38.573Z,81.62
2022-08-31T07:51:38.554Z,79.82
2022-08-31T07:52:38.845Z,79.62
2022-08-31T07:53:38.523Z,79.55
2022-08-31T07:54:38.523Z,80.16
2022-08-31T07:55:38.535Z,80.42
2022-08-31T07:56:38.525Z,80.42
2022-08-31T07:57:39.234Z,80.02
2022-08-31T07:58:38.468Z,79.22
2022-08-31T07:59:38.556Z,80.32
2022-08-31T08:00:38.437Z,80.62
2022-08-31T08:01:38.547Z,80.62
2022-08-31T08:02:38.510Z,80.42
2022-08-31T08:03:38.415Z,81.23
2022-08-31T08:04:38.797Z,81.52
2022-08-31T08:05:38.427Z,81.76
2022-08-31T08:06:38.406Z,81.56
2022-08-31T08:07:38.421Z,80.96
2022-08-31T08:08:38.429Z,81.26
2022-08-31T08:09:38.400Z,81.46
2022-08-31T08:10:38.389Z,82.06
2022-08-31T08:11:38.369Z,81.16
2022-08-31T08:12:38.307Z,81.06
2022-08-31T08:13:38.359Z,80.96
2022-08-31T08:14:38.346Z,81.96
2022-08-31T08:15:39.281Z,81.87
2022-08-31T08:16:38.380Z,81.56
2022-08-31T08:17:38.322Z,81.96
2022-08-31T08:18:38.257Z,82.57
2022-08-31T08:19:38.242Z,81.67
2022-08-31T08:20:39.013Z,81.96
2022-08-31T08:21:38.312Z,84.67
2022-08-31T08:22:51.791Z,86.42
2022-08-31T08:23:39.202Z,86.12
2022-08-31T08:24:38.184Z,85.92
2022-08-31T08:25:38.282Z,86.32
2022-08-31T08:26:38.231Z,87.42
2022-08-31T08:27:38.183Z,86.42
2022-08-31T08:28:40.190Z,85.22
2022-08-31T08:29:38.154Z,84.21
2022-08-31T08:30:38.174Z,85.02
2022-08-31T08:31:38.246Z,84.35
2022-08-31T08:32:38.118Z,85.96
2022-08-31T08:33:38.113Z,85.46
2022-08-31T08:34:38.074Z,85.46
2022-08-31T08:35:38.066Z,86.32
2022-08-31T08:36:38.046Z,86.12
2022-08-31T08:37:57.328Z,87.22
2022-08-31T08:38:39.183Z,85.82
2022-08-31T08:39:38.099Z,84.61
2022-08-31T08:40:38.088Z,85.92
2022-08-31T08:41:38.008Z,84.91
2022-08-31T08:42:37.997Z,84.01
2022-08-31T08:43:38.129Z,83.21
2022-08-31T08:44:38.006Z,83.71
2022-08-31T08:45:38.032Z,84.41
2022-08-31T08:46:38.031Z,85.41
2022-08-31T08:47:39.227Z,86.52
2022-08-31T08:48:37.920Z,86.28
2022-08-31T08:49:37.984Z,84.88
2022-08-31T08:50:37.940Z,84.77
2022-08-31T08:51:37.980Z,84.47
2022-08-31T08:52:37.901Z,83.37
2022-08-31T08:53:37.883Z,83.17
2022-08-31T08:54:37.881Z,83.67
2022-08-31T08:55:37.892Z,83.97
2022-08-31T08:56:37.852Z,82.76
2022-08-31T08:57:37.855Z,82.57
2022-08-31T08:58:37.844Z,83.07
2022-08-31T08:59:37.834Z,82.26
2022-08-31T09:00:37.902Z,82.57
2022-08-31T09:01:37.962Z,82.87
2022-08-31T09:02:37.974Z,82.87
2022-08-31T09:03:37.760Z,82.87
2022-08-31T09:04:37.775Z,82.87
2022-08-31T09:05:37.775Z,82.76
2022-08-31T09:06:45.802Z,82.87
2022-08-31T09:07:38.735Z,83.57
2022-08-31T09:08:37.706Z,82.67
2022-08-31T09:09:37.698Z,83.43
2022-08-31T09:10:37.686Z,83.23
2022-08-31T09:11:37.736Z,82.82
2022-08-31T09:12:37.806Z,82.93
2022-08-31T09:13:37.751Z,82.73
2022-08-31T09:14:37.638Z,81.23
2022-08-31T09:15:37.698Z,81.18
2022-08-31T09:16:37.687Z,79.58
2022-08-31T09:17:37.628Z,79.28
2022-08-31T09:18:37.617Z,78.58
2022-08-31T09:19:37.629Z,78.78
2022-08-31T09:20:37.596Z,79.28
2022-08-31T09:21:37.570Z,78.44
2022-08-31T09:22:37.579Z,78.04
2022-08-31T09:23:37.589Z,78.84
2022-08-31T09:24:37.541Z,78.94
2022-08-31T09:25:37.537Z,78.84
2022-08-31T09:26:37.521Z,79.80
2022-08-31T09:27:37.555Z,76.80
2022-08-31T09:28:37.555Z,77.91
2022-08-31T09:29:37.541Z,76.80
2022-08-31T09:30:37.481Z,77.70
2022-08-31T09:31:37.771Z,78.67
2022-08-31T09:32:37.520Z,78.67
2022-08-31T09:33:37.433Z,78.47
2022-08-31T09:34:37.479Z,79.67
2022-08-31T09:35:37.413Z,77.33
2022-08-31T09:36:37.425Z,77.13
2022-08-31T09:37:37.414Z,77.63
2022-08-31T09:38:37.395Z,76.83
2022-08-31T09:39:38.400Z,76.83
2022-08-31T09:40:37.486Z,77.63
2022-08-31T09:41:37.358Z,76.03
2022-08-31T09:42:37.346Z,76.53
2022-08-31T09:43:37.358Z,75.23
2022-08-31T09:44:37.366Z,76.73
2022-08-31T09:45:42.160Z,76.13
2022-08-31T09:46:38.595Z,75.59
2022-08-31T09:47:37.327Z,75.99
2022-08-31T09:48:37.298Z,76.03
2022-08-31T09:49:37.328Z,75.43
2022-08-31T09:50:37.258Z,74.22
2022-08-31T09:51:37.246Z,73.03
2022-08-31T09:52:37.228Z,73.63
2022-08-31T09:53:37.980Z,75.52
2022-08-31T09:54:37.267Z,75.13
2022-08-31T09:55:37.233Z,75.13
2022-08-31T09:56:37.500Z,74.63
2022-08-31T09:57:37.228Z,75.33
2022-08-31T09:58:37.240Z,74.73
2022-08-31T09:59:37.204Z,73.72
2022-08-31T10:00:37.149Z,76.23
2022-08-31T10:01:37.228Z,75.02
2022-08-31T10:02:37.191Z,75.33
2022-08-31T10:03:37.169Z,74.93
2022-08-31T10:04:37.171Z,74.87
2022-08-31T10:05:37.111Z,74.37
2022-08-31T10:06:37.183Z,73.06
2022-08-31T10:07:37.094Z,74.76
2022-08-31T10:08:37.095Z,75.06
2022-08-31T10:09:37.053Z,75.96
2022-08-31T10:10:37.044Z,76.23
2022-08-31T10:11:37.051Z,75.02
2022-08-31T10:12:37.065Z,75.43
2022-08-31T10:13:37.049Z,73.53
2022-08-31T10:14:37.045Z,74.03
2022-08-31T10:15:37.085Z,74.53
2022-08-31T10:16:36.986Z,74.93
2022-08-31T10:17:36.992Z,74.73
2022-08-31T10:18:36.946Z,74.63
2022-08-31T10:19:36.958Z,73.83
2022-08-31T10:20:36.927Z,75.02
2022-08-31T10:21:36.936Z,74.13
2022-08-31T10:22:36.965Z,75.69
2022-08-31T10:23:36.915Z,73.49
2022-08-31T10:24:36.896Z,73.59
2022-08-31T10:25:36.959Z,74.79
2022-08-31T10:26:36.882Z,74.09
2022-08-31T10:27:36.889Z,73.69
2022-08-31T10:28:36.847Z,74.49
2022-08-31T10:29:36.836Z,74.49
2022-08-31T10:30:36.915Z,74.29
2022-08-31T10:31:37.026Z,74.99
2022-08-31T10:32:36.879Z,75.19
2022-08-31T10:33:36.820Z,74.46
2022-08-31T10:34:36.810Z,73.29
2022-08-31T10:35:36.819Z,73.79
2022-08-31T10:36:36.763Z,71.99
2022-08-31T10:37:36.855Z,72.09
2022-08-31T10:38:36.756Z,72.79
2022-08-31T10:39:36.763Z,72.89
2022-08-31T10:40:36.840Z,72.99
2022-08-31T10:41:36.763Z,72.39
2022-08-31T10:42:36.701Z,72.99
2022-08-31T10:43:36.744Z,73.59
2022-08-31T10:44:36.693Z,73.69
2022-08-31T10:45:36.679Z,74.09
2022-08-31T10:46:36.778Z,74.55
2022-08-31T10:47:36.694Z,73.46
2022-08-31T10:48:36.657Z,71.86
2022-08-31T10:49:36.667Z,71.46
2022-08-31T10:50:36.655Z,72.45
2022-08-31T10:51:36.638Z,72.66
2022-08-31T10:52:36.636Z,72.96
2022-08-31T10:53:39.912Z,73.06
2022-08-31T10:54:36.618Z,71.56
2022-08-31T10:55:36.667Z,71.56
2022-08-31T10:56:36.557Z,71.06
2022-08-31T10:57:36.627Z,72.26
2022-08-31T10:58:36.538Z,71.52
2022-08-31T10:59:36.537Z,70.92
2022-08-31T11:00:36.516Z,70.62
2022-08-31T11:01:36.588Z,70.56
2022-08-31T11:02:36.571Z,70.76
2022-08-31T11:03:36.549Z,71.46
2022-08-31T11:04:36.772Z,72.42
2022-08-31T11:05:36.499Z,72.32
2022-08-31T11:06:36.498Z,71.92
2022-08-31T11:07:36.469Z,71.42
2022-08-31T11:08:36.421Z,70.53
2022-08-31T11:09:36.411Z,71.92
2022-08-31T11:10:36.403Z,72.13
2022-08-31T11:11:38.302Z,70.83
2022-08-31T11:12:37.432Z,72.22
2022-08-31T11:13:36.482Z,72.32
2022-08-31T11:14:36.394Z,71.42
2022-08-31T11:15:36.386Z,71.42
2022-08-31T11:16:36.344Z,72.52
2022-08-31T11:17:36.344Z,72.72
2022-08-31T11:18:36.359Z,72.32
2022-08-31T11:19:36.306Z,71.83
2022-08-31T11:20:36.309Z,71.83
2022-08-31T11:21:36.286Z,71.12
2022-08-31T11:22:36.305Z,71.33
2022-08-31T11:23:42.202Z,72.02
2022-08-31T11:24:37.738Z,71.12
2022-08-31T11:25:36.265Z,71.42
2022-08-31T11:26:36.266Z,72.42
2022-08-31T11:27:36.229Z,71.33
2022-08-31T11:28:36.239Z,71.86
2022-08-31T11:29:36.197Z,72.45
2022-08-31T11:30:39.992Z,72.76
2022-08-31T11:31:37.252Z,72.76
2022-08-31T11:32:36.187Z,72.76
2022-08-31T11:33:36.180Z,71.96
2022-08-31T11:34:36.228Z,72.86
2022-08-31T11:35:36.150Z,73.16
2022-08-31T11:36:37.158Z,72.06
2022-08-31T11:37:36.139Z,72.45
2022-08-31T11:38:36.128Z,73.25
2022-08-31T11:39:36.184Z,73.79
2022-08-31T11:40:36.183Z,74.05
2022-08-31T11:41:36.111Z,72.96
2022-08-31T11:42:36.081Z,73.46
2022-08-31T11:43:36.062Z,73.25
2022-08-31T11:44:36.042Z,73.25
2022-08-31T11:45:36.032Z,73.86
2022-08-31T11:46:36.080Z,73.86
2022-08-31T11:47:36.042Z,73.56
2022-08-31T11:48:36.001Z,73.25
2022-08-31T11:49:35.986Z,72.79
2022-08-31T11:50:36.013Z,72.19
2022-08-31T11:51:40.707Z,73.59
2022-08-31T11:52:36.974Z,72.29
2022-08-31T11:53:35.969Z,72.69
2022-08-31T11:54:35.952Z,73.69
2022-08-31T11:55:35.947Z,73.49
2022-08-31T11:56:35.912Z,73.79
2022-08-31T11:57:37.829Z,73.39
2022-08-31T11:58:36.620Z,72.89
2022-08-31T11:59:35.889Z,73.69
2022-08-31T12:00:36.587Z,73.89
2022-08-31T12:01:35.858Z,73.39
2022-08-31T12:02:36.602Z,73.19
2022-08-31T12:03:35.867Z,73.29
2022-08-31T12:04:35.846Z,72.39
2022-08-31T12:05:35.882Z,72.69
2022-08-31T12:06:35.807Z,72.59
2022-08-31T12:07:35.874Z,72.99
2022-08-31T12:08:35.800Z,73.09
2022-08-31T12:09:35.810Z,73.29
2022-08-31T12:10:35.841Z,73.59
2022-08-31T12:11:35.740Z,72.69
2022-08-31T12:12:35.750Z,72.69
2022-08-31T12:13:35.721Z,72.99
2022-08-31T12:14:35.730Z,72.99
2022-08-31T12:15:35.734Z,73.79
2022-08-31T12:16:35.698Z,73.79
2022-08-31T12:17:35.691Z,72.06
2022-08-31T12:18:35.697Z,72.45
2022-08-31T12:19:35.664Z,73.66
2022-08-31T12:20:35.661Z,73.46
2022-08-31T12:21:35.643Z,73.16
2022-08-31T12:22:35.662Z,72.72
2022-08-31T12:23:35.970Z,72.22
2022-08-31T12:24:35.906Z,73.02
2022-08-31T12:25:35.637Z,71.52
2022-08-31T12:26:35.603Z,71.59
2022-08-31T12:27:35.586Z,70.39
2022-08-31T12:28:35.608Z,71.19
2022-08-31T12:29:35.566Z,70.56
2022-08-31T12:30:35.604Z,69.56
2022-08-31T12:31:35.613Z,69.66
2022-08-31T12:32:35.544Z,69.36
2022-08-31T12:33:35.517Z,68.93
2022-08-31T12:34:35.523Z,69.02
2022-08-31T12:35:35.505Z,69.82
2022-08-31T12:36:35.498Z,70.09
2022-08-31T12:37:35.486Z,68.10
2022-08-31T12:38:35.466Z,67.60
2022-08-31T12:39:35.480Z,67.96
2022-08-31T12:40:35.539Z,68.76
2022-08-31T12:41:35.429Z,68.33
2022-08-31T12:42:35.440Z,68.40
2022-08-31T12:43:35.419Z,67.37
2022-08-31T12:44:35.418Z,65.25
2022-08-31T12:45:35.398Z,64.98
2022-08-31T12:46:35.429Z,64.89
2022-08-31T12:47:35.390Z,63.96
2022-08-31T12:48:35.368Z,63.67
2022-08-31T12:49:35.361Z,63.67
2022-08-31T12:50:35.350Z,62.34
2022-08-31T12:51:35.361Z,62.74
2022-08-31T12:52:35.315Z,61.91